createdAt,value
2023-05-11T00:02:10.592Z,96081.88
2023-05-11T00:04:38.980Z,96085.44
2023-05-11T00:07:07.250Z,96084.81
2023-05-11T00:09:38.494Z,96082.22
2023-05-11T00:12:07.783Z,96078.31
2023-05-11T00:14:36.086Z,96089.09
2023-05-11T00:17:04.412Z,96088.75
2023-05-11T00:19:33.041Z,96078.59
2023-05-11T00:22:01.823Z,96082.75
2023-05-11T00:24:30.338Z,96080.72
2023-05-11T00:26:59.986Z,96078.63
2023-05-11T00:29:28.250Z,96072.13
2023-05-11T00:31:56.613Z,96067.19
2023-05-11T00:34:25.149Z,96062.59
2023-05-11T00:36:53.451Z,96062.88
2023-05-11T00:39:21.709Z,96060.91
2023-05-11T00:41:50.053Z,96061.75
2023-05-11T00:44:19.641Z,96055.13
2023-05-11T00:46:47.979Z,96054.88
2023-05-11T00:49:17.368Z,96049.25
2023-05-11T00:51:45.750Z,96053.59
2023-05-11T00:54:15.713Z,96051.69
2023-05-11T00:56:43.942Z,96048.25
2023-05-11T00:59:13.613Z,96054.16
2023-05-11T01:01:43.337Z,96049.53
2023-05-11T01:04:11.794Z,96054.25
2023-05-11T01:06:46.757Z,96054.25
2023-05-11T01:09:25.679Z,96057.88
2023-05-11T01:11:59.558Z,96042.28
2023-05-11T01:14:31.307Z,96045.38
2023-05-11T01:17:05.172Z,96042.47
2023-05-11T01:19:42.313Z,96041.47
2023-05-11T01:22:19.897Z,96043.03
2023-05-11T01:24:59.764Z,96039.91
2023-05-11T01:27:45.262Z,96031.94
2023-05-11T01:30:27.389Z,96046.38
2023-05-11T01:32:56.635Z,96036.63
2023-05-11T01:35:26.520Z,96040.59
2023-05-11T01:37:58.660Z,96037.66
2023-05-11T01:40:29.877Z,96033.53
2023-05-11T01:43:02.437Z,96033.19
2023-05-11T01:45:35.823Z,96046.53
2023-05-11T01:48:06.743Z,96041.59
2023-05-11T01:50:36.092Z,96042.41
2023-05-11T01:53:04.684Z,96040.03
2023-05-11T01:55:35.929Z,96035.31
2023-05-11T01:58:05.418Z,96039.44
2023-05-11T02:00:35.946Z,96034.28
2023-05-11T02:03:07.156Z,96036.69
2023-05-11T02:05:36.091Z,96029.91
2023-05-11T02:08:05.858Z,96039.34
2023-05-11T02:10:35.504Z,96033.94
2023-05-11T02:13:05.324Z,96030.88
2023-05-11T02:15:36.761Z,96036.59
2023-05-11T02:18:06.351Z,96031.47
2023-05-11T02:20:34.814Z,96034.66
2023-05-11T02:23:03.819Z,96027.59
2023-05-11T02:25:32.802Z,96036.41
2023-05-11T02:28:01.294Z,96036.03
2023-05-11T02:30:30.818Z,96036.16
2023-05-11T02:33:07.034Z,96035.94
2023-05-11T02:35:39.481Z,96025.38
2023-05-11T02:38:08.416Z,96022.84
2023-05-11T02:40:41.022Z,96020.59
2023-05-11T02:43:10.748Z,96022.81
2023-05-11T02:45:40.395Z,96020.13
2023-05-11T02:48:14.141Z,96020.50
2023-05-11T02:50:43.347Z,96030.38
2023-05-11T02:53:15.904Z,96019.47
2023-05-11T02:55:44.212Z,96020.59
2023-05-11T02:58:12.536Z,96012.66
2023-05-11T03:00:41.008Z,96023.41
2023-05-11T03:03:10.766Z,96022.19
2023-05-11T03:05:39.088Z,96027.69
2023-05-11T03:08:07.452Z,96017.97
2023-05-11T03:10:36.271Z,96009.50
2023-05-11T03:13:04.762Z,96018.31
2023-05-11T03:15:33.558Z,96015.88
2023-05-11T03:18:02.137Z,96011.97
2023-05-11T03:20:33.076Z,96017.22
2023-05-11T03:23:01.871Z,96009.44
2023-05-11T03:25:30.500Z,96013.78
2023-05-11T03:27:59.555Z,96011.66
2023-05-11T03:30:29.429Z,96008.47
2023-05-11T03:32:57.754Z,96016.69
2023-05-11T03:35:28.486Z,96011.44
2023-05-11T03:37:57.925Z,96007.38
2023-05-11T03:40:27.882Z,96007.97
2023-05-11T03:42:56.724Z,96009.88
2023-05-11T03:45:26.348Z,96009.41
2023-05-11T03:47:55.276Z,96005.19
2023-05-11T03:50:23.921Z,96004.81
2023-05-11T03:52:52.412Z,96008.69
2023-05-11T03:55:22.900Z,96001.63
2023-05-11T03:57:51.751Z,95998.81
2023-05-11T04:00:20.476Z,96008.28
2023-05-11T04:02:48.970Z,96009.53
2023-05-11T04:05:18.469Z,96007.41
2023-05-11T04:07:46.794Z,95999.44
2023-05-11T04:10:15.085Z,95999.81
2023-05-11T04:12:44.775Z,95992.66
2023-05-11T04:15:13.148Z,95992.53
2023-05-11T04:17:41.413Z,95987.84
2023-05-11T04:20:10.293Z,95982.50
2023-05-11T04:22:38.650Z,95985.94
2023-05-11T04:25:07.743Z,95996.69
2023-05-11T04:27:36.159Z,95982.41
2023-05-11T04:30:07.083Z,95994.72
2023-05-11T04:32:35.411Z,95996.31
2023-05-11T04:35:04.018Z,95999.09
2023-05-11T04:37:45.095Z,95999.22
2023-05-11T04:40:28.633Z,95993.56
2023-05-11T04:42:58.482Z,95994.06
2023-05-11T04:45:29.322Z,95993.88
2023-05-11T04:47:59.433Z,95990.69
2023-05-11T04:50:28.864Z,96001.31
2023-05-11T04:52:57.167Z,96004.38
2023-05-11T04:55:25.496Z,96006.78
2023-05-11T04:57:53.817Z,96001.75
2023-05-11T05:00:22.931Z,96002.53
2023-05-11T05:02:52.756Z,96000.97
2023-05-11T05:05:21.200Z,96013.59
2023-05-11T05:07:49.482Z,96000.50
2023-05-11T05:10:17.898Z,96001.19
2023-05-11T05:12:46.811Z,96014.59
2023-05-11T05:15:15.788Z,96004.66
2023-05-11T05:17:44.276Z,96001.78
2023-05-11T05:20:14.092Z,96006.47
2023-05-11T05:22:42.716Z,96005.81
2023-05-11T05:25:12.125Z,96006.13
2023-05-11T05:27:40.393Z,96008.75
2023-05-11T05:30:09.480Z,96004.00
2023-05-11T05:32:37.767Z,96008.91
2023-05-11T05:35:06.960Z,96009.59
2023-05-11T05:37:37.550Z,96012.63
2023-05-11T05:40:06.130Z,96004.06
2023-05-11T05:42:34.355Z,96025.56
2023-05-11T05:45:02.592Z,96021.81
2023-05-11T05:47:30.871Z,96015.09
2023-05-11T05:49:59.162Z,96013.78
2023-05-11T05:52:27.388Z,96017.38
2023-05-11T05:54:57.631Z,96013.72
2023-05-11T05:57:26.602Z,96020.88
2023-05-11T05:59:55.181Z,96020.34
2023-05-11T06:02:23.659Z,96015.41
2023-05-11T06:04:51.997Z,96016.59
2023-05-11T06:07:20.348Z,96023.41
2023-05-11T06:09:48.639Z,96025.16
2023-05-11T06:12:18.364Z,96021.03
2023-05-11T06:14:46.711Z,96028.44
2023-05-11T06:17:15.012Z,96027.69
2023-05-11T06:19:43.636Z,96037.91
2023-05-11T06:22:12.082Z,96029.09
2023-05-11T06:24:40.356Z,96028.75
2023-05-11T06:27:08.675Z,96031.34
2023-05-11T06:29:38.665Z,96029.19
2023-05-11T06:32:07.487Z,96024.94
2023-05-11T06:34:35.938Z,96035.75
2023-05-11T06:37:04.274Z,96039.91
2023-05-11T06:39:32.659Z,96042.47
2023-05-11T06:42:03.568Z,96034.91
2023-05-11T06:47:21.362Z,96035.50
2023-05-11T06:49:49.704Z,96045.91
2023-05-11T06:52:18.081Z,96031.34
2023-05-11T06:54:46.376Z,96038.81
2023-05-11T06:57:14.812Z,96044.28
2023-05-11T06:59:44.095Z,96046.97
2023-05-11T07:02:12.494Z,96044.28
2023-05-11T07:04:42.267Z,96031.66
2023-05-11T07:07:11.368Z,96034.75
2023-05-11T07:09:40.758Z,96041.34
2023-05-11T07:12:10.368Z,96032.75
2023-05-11T07:14:38.657Z,96041.84
2023-05-11T07:17:07.494Z,96045.59
2023-05-11T07:19:35.876Z,96036.75
2023-05-11T07:22:05.879Z,96031.44
2023-05-11T07:24:34.257Z,96044.50
2023-05-11T07:27:02.532Z,96043.16
2023-05-11T07:29:30.851Z,96038.25
2023-05-11T07:31:59.199Z,96035.06
2023-05-11T07:34:27.638Z,96029.38
2023-05-11T07:36:56.006Z,96041.50
2023-05-11T07:39:25.578Z,96030.78
2023-05-11T07:41:53.950Z,96031.63
2023-05-11T07:44:22.350Z,96034.72
2023-05-11T07:46:50.717Z,96036.09
2023-05-11T07:49:25.459Z,96032.63
2023-05-11T07:52:03.694Z,96040.81
2023-05-11T07:54:33.410Z,96035.22
2023-05-11T07:57:02.274Z,96032.81
2023-05-11T07:59:30.543Z,96035.13
2023-05-11T08:01:58.901Z,96033.41
2023-05-11T08:04:28.475Z,96033.72
2023-05-11T08:09:18.782Z,96032.69
2023-05-11T08:11:47.037Z,96027.38
2023-05-11T08:14:15.786Z,96026.16
2023-05-11T08:16:44.483Z,96027.94
2023-05-11T08:19:14.101Z,96034.19
2023-05-11T08:21:42.521Z,96021.03
2023-05-11T08:24:10.953Z,96034.16
2023-05-11T08:26:40.568Z,96030.22
2023-05-11T08:29:08.850Z,96035.81
2023-05-11T08:31:37.132Z,96031.97
2023-05-11T08:34:13.812Z,96032.97
2023-05-11T08:36:46.839Z,96030.22
2023-05-11T08:39:32.881Z,96032.22
2023-05-11T08:42:07.995Z,96036.66
2023-05-11T08:44:38.132Z,96028.91
2023-05-11T08:47:21.799Z,96029.59
2023-05-11T08:49:52.485Z,96022.91
2023-05-11T08:52:20.879Z,96026.72
2023-05-11T08:54:49.280Z,96024.78
2023-05-11T08:57:19.126Z,96024.19
2023-05-11T08:59:47.799Z,96030.72
2023-05-11T09:02:18.732Z,96024.84
2023-05-11T09:04:48.896Z,96023.34
2023-05-11T09:07:18.414Z,96018.00
2023-05-11T09:09:47.230Z,96023.41
2023-05-11T09:12:16.053Z,96018.81
2023-05-11T09:14:47.122Z,96021.03
2023-05-11T09:17:15.525Z,96017.00
2023-05-11T09:20:00.954Z,96016.19
2023-05-11T09:22:31.447Z,96019.97
2023-05-11T09:25:01.755Z,96020.38
2023-05-11T09:27:30.122Z,96019.81
2023-05-11T09:30:11.349Z,96016.19
2023-05-11T09:32:48.631Z,96017.63
2023-05-11T09:35:21.584Z,96016.13
2023-05-11T09:38:01.119Z,96010.47
2023-05-11T09:40:34.304Z,96014.06
2023-05-11T09:43:03.879Z,96025.13
2023-05-11T09:45:44.026Z,96013.09
2023-05-11T09:48:25.111Z,96016.13
2023-05-11T09:51:00.420Z,96013.31
2023-05-11T09:53:43.570Z,96009.91
2023-05-11T09:56:12.394Z,96011.72
2023-05-11T09:58:48.454Z,96012.78
2023-05-11T10:01:18.836Z,96016.06
2023-05-11T10:03:49.030Z,96011.53
2023-05-11T10:06:20.024Z,96016.25
2023-05-11T10:08:49.197Z,96015.66
2023-05-11T10:11:17.632Z,96015.38
2023-05-11T10:13:46.629Z,96018.28
2023-05-11T10:16:19.911Z,96020.69
2023-05-11T10:18:48.986Z,96020.53
2023-05-11T10:21:17.930Z,96021.16
2023-05-11T10:23:46.440Z,96024.19
2023-05-11T10:26:15.408Z,96020.66
2023-05-11T10:28:44.014Z,96014.53
2023-05-11T10:31:12.476Z,96016.72
2023-05-11T10:33:43.125Z,96020.69
2023-05-11T10:36:19.117Z,96021.25
2023-05-11T10:38:48.055Z,96012.63
2023-05-11T10:41:26.676Z,96012.84
2023-05-11T10:44:21.074Z,96007.06
2023-05-11T10:47:02.866Z,96015.47
2023-05-11T10:49:49.905Z,96008.53
2023-05-11T10:52:37.268Z,96002.13
2023-05-11T10:55:11.798Z,96001.56
2023-05-11T10:57:56.434Z,96008.59
2023-05-11T11:01:04.163Z,96001.50
2023-05-11T11:03:32.707Z,96005.06
2023-05-11T11:06:02.386Z,96008.22
2023-05-11T11:08:30.779Z,96002.69
2023-05-11T11:10:59.063Z,96009.53
2023-05-11T11:13:27.400Z,96001.31
2023-05-11T11:16:16.654Z,96011.41
2023-05-11T11:18:45.575Z,96009.75
2023-05-11T11:21:41.352Z,95999.78
2023-05-11T11:24:09.646Z,96010.81
2023-05-11T11:26:48.756Z,96006.41
2023-05-11T11:29:17.086Z,96012.69
2023-05-11T11:31:45.438Z,96008.22
2023-05-11T11:34:36.713Z,96003.28
2023-05-11T11:37:08.717Z,96006.50
2023-05-11T11:40:05.990Z,96003.06
2023-05-11T11:42:44.217Z,96005.28
2023-05-11T11:45:50.654Z,95998.66
2023-05-11T11:48:23.003Z,96004.41
2023-05-11T11:51:02.664Z,96006.63
2023-05-11T11:54:04.117Z,96007.16
2023-05-11T11:56:41.502Z,95998.59
2023-05-11T11:59:13.860Z,95996.50
2023-05-11T12:01:44.597Z,96003.25
2023-05-11T12:04:40.725Z,96000.09
2023-05-11T12:07:11.393Z,96011.63
2023-05-11T12:09:41.097Z,95993.78
2023-05-11T12:12:12.046Z,96004.44
2023-05-11T12:14:42.091Z,96001.34
2023-05-11T12:17:15.818Z,95995.41
2023-05-11T12:19:45.674Z,96000.81
2023-05-11T12:22:16.443Z,96002.78
2023-05-11T12:24:45.042Z,95999.66
2023-05-11T12:27:14.998Z,95996.59
2023-05-11T12:29:45.986Z,96002.13
2023-05-11T12:32:14.989Z,95988.91
2023-05-11T12:34:43.340Z,95989.84
2023-05-11T12:37:11.603Z,95986.94
2023-05-11T12:39:41.120Z,95990.94
2023-05-11T12:42:09.937Z,95988.13
2023-05-11T12:44:41.539Z,95987.75
2023-05-11T12:47:14.584Z,95984.97
2023-05-11T12:49:43.541Z,95982.94
2023-05-11T12:52:14.850Z,95987.94
2023-05-11T12:54:51.285Z,95979.09
2023-05-11T12:57:29.531Z,95978.13
2023-05-11T13:00:11.523Z,95980.56
2023-05-11T13:02:50.029Z,95978.94
2023-05-11T13:05:20.597Z,95982.50
2023-05-11T13:07:49.581Z,95975.44
2023-05-11T13:10:17.819Z,95966.56
2023-05-11T13:12:49.604Z,95972.56
2023-05-11T13:15:20.642Z,95974.00
2023-05-11T13:17:55.164Z,95969.81
2023-05-11T13:20:29.531Z,95971.53
2023-05-11T13:23:08.805Z,95974.25
2023-05-11T13:25:55.690Z,95965.53
2023-05-11T13:28:25.248Z,95971.13
2023-05-11T13:31:00.420Z,95965.13
2023-05-11T13:33:29.059Z,95960.00
2023-05-11T13:35:57.393Z,95965.88
2023-05-11T13:38:26.106Z,95955.13
2023-05-11T13:40:54.447Z,95959.78
2023-05-11T13:43:23.610Z,95954.97
2023-05-11T13:45:52.125Z,95962.22
2023-05-11T13:48:21.921Z,95968.66
2023-05-11T13:50:50.307Z,95954.81
2023-05-11T13:53:19.046Z,95958.56
2023-05-11T13:55:48.329Z,95966.75
2023-05-11T13:58:17.877Z,95969.44
2023-05-11T14:00:56.432Z,95955.41
2023-05-11T14:03:34.340Z,95957.25
2023-05-11T14:06:02.671Z,95962.22
2023-05-11T14:08:31.317Z,95954.06
2023-05-11T14:11:00.669Z,95950.63
2023-05-11T14:13:29.084Z,95954.88
2023-05-11T14:15:58.187Z,95956.94
2023-05-11T14:18:26.640Z,95961.41
2023-05-11T14:20:56.897Z,95955.53
2023-05-11T14:23:25.123Z,95953.13
2023-05-11T14:25:53.341Z,95953.91
2023-05-11T14:28:21.937Z,95958.59
2023-05-11T14:30:50.232Z,95953.72
2023-05-11T14:33:18.523Z,95960.16
2023-05-11T14:35:48.747Z,95954.47
2023-05-11T14:38:18.448Z,95952.88
2023-05-11T14:40:47.167Z,95951.59
2023-05-11T14:43:15.415Z,95948.78
2023-05-11T14:45:43.657Z,95941.09
2023-05-11T14:48:11.919Z,95941.16
2023-05-11T14:50:40.466Z,95953.28
2023-05-11T14:53:08.696Z,95943.06
2023-05-11T14:55:38.980Z,95943.19
2023-05-11T14:58:09.225Z,95942.53
2023-05-11T15:00:40.265Z,95948.63
2023-05-11T15:03:10.580Z,95942.13
2023-05-11T15:05:39.177Z,95949.09
2023-05-11T15:08:18.361Z,95953.81
2023-05-11T15:10:55.850Z,95949.59
2023-05-11T15:13:24.375Z,95948.41
2023-05-11T15:15:52.755Z,95949.69
2023-05-11T15:18:21.177Z,95959.41
2023-05-11T15:20:49.609Z,95959.91
2023-05-11T15:23:18.000Z,95960.72
2023-05-11T15:25:46.385Z,95967.44
2023-05-11T15:28:16.303Z,95969.22
2023-05-11T15:30:44.542Z,95962.41
2023-05-11T15:33:12.829Z,95966.66
2023-05-11T15:35:41.181Z,95975.91
2023-05-11T15:38:09.539Z,95970.59
2023-05-11T15:40:37.939Z,95970.72
2023-05-11T15:43:06.199Z,95965.44
2023-05-11T15:45:36.222Z,95973.34
2023-05-11T15:48:04.928Z,95975.38
2023-05-11T15:50:33.316Z,95973.91
2023-05-11T15:53:02.102Z,95972.84
2023-05-11T15:55:30.401Z,95980.13
2023-05-11T15:57:58.693Z,95972.63
2023-05-11T16:00:27.282Z,95975.63
2023-05-11T16:02:57.010Z,95979.31
2023-05-11T16:05:25.365Z,95972.78
2023-05-11T16:07:53.675Z,95979.06
2023-05-11T16:10:22.233Z,95973.94
2023-05-11T16:12:50.581Z,95974.97
2023-05-11T16:15:18.802Z,95976.84
2023-05-11T16:17:47.520Z,95986.50
2023-05-11T16:20:17.223Z,95985.28
2023-05-11T16:22:47.507Z,95988.53
2023-05-11T16:25:16.123Z,95975.06
2023-05-11T16:27:44.415Z,95976.59
2023-05-11T16:30:23.157Z,95980.72
2023-05-11T16:32:54.163Z,95978.94
2023-05-11T16:35:23.929Z,95970.19
2023-05-11T16:37:52.541Z,95972.63
2023-05-11T16:40:21.528Z,95977.22
2023-05-11T16:42:50.142Z,95974.47
2023-05-11T16:45:18.417Z,95967.13
2023-05-11T16:47:46.765Z,95965.16
2023-05-11T16:50:16.120Z,95953.13
2023-05-11T16:52:46.128Z,95952.88
2023-05-11T16:55:20.457Z,95965.84
2023-05-11T16:57:52.835Z,95960.00
2023-05-11T17:00:21.724Z,95953.78
2023-05-11T17:02:50.377Z,95949.63
2023-05-11T17:05:19.004Z,95947.44
2023-05-11T17:07:48.785Z,95944.16
2023-05-11T17:10:18.952Z,95951.28
2023-05-11T17:12:58.555Z,95944.66
2023-05-11T17:15:27.029Z,95947.81
2023-05-11T17:18:01.506Z,95953.63
2023-05-11T17:20:29.895Z,95956.03
2023-05-11T17:23:00.964Z,95960.41
2023-05-11T17:25:29.998Z,95956.81
2023-05-11T17:27:58.281Z,95955.41
2023-05-11T17:30:36.411Z,95956.09
2023-05-11T17:33:15.052Z,95957.47
2023-05-11T17:35:43.634Z,95950.38
2023-05-11T17:38:13.278Z,95955.56
2023-05-11T17:40:42.522Z,95961.06
2023-05-11T17:43:11.525Z,95965.59
2023-05-11T17:45:40.214Z,95962.09
2023-05-11T17:48:08.691Z,95965.53
2023-05-11T17:50:37.289Z,95960.84
2023-05-11T17:53:06.126Z,95961.28
2023-05-11T17:55:39.274Z,95964.03
2023-05-11T17:58:07.637Z,95963.63
2023-05-11T18:00:39.079Z,95960.44
2023-05-11T18:03:09.347Z,95964.31
2023-05-11T18:05:54.629Z,95969.00
2023-05-11T18:08:23.222Z,95960.13
2023-05-11T18:10:54.777Z,95967.50
2023-05-11T18:13:23.638Z,95960.50
2023-05-11T18:15:51.923Z,95962.28
2023-05-11T18:18:20.734Z,95959.47
2023-05-11T18:20:49.488Z,95968.75
2023-05-11T18:23:17.819Z,95958.63
2023-05-11T18:25:46.100Z,95957.94
2023-05-11T18:28:15.671Z,95962.88
2023-05-11T18:30:43.940Z,95964.00
2023-05-11T18:33:12.212Z,95961.94
2023-05-11T18:35:41.660Z,95962.81
2023-05-11T18:38:09.928Z,95959.38
2023-05-11T18:40:38.220Z,95961.63
2023-05-11T18:43:06.706Z,95966.88
2023-05-11T18:45:36.349Z,95970.41
2023-05-11T18:48:05.138Z,95972.69
2023-05-11T18:50:33.918Z,95964.81
2023-05-11T18:53:02.272Z,95963.59
2023-05-11T18:55:35.504Z,95971.50
2023-05-11T18:58:09.504Z,95972.63
2023-05-11T19:00:39.573Z,95971.75
2023-05-11T19:03:08.196Z,95977.44
2023-05-11T19:05:36.449Z,95972.47
2023-05-11T19:08:04.967Z,95976.19
2023-05-11T19:10:33.181Z,95979.56
2023-05-11T19:13:01.397Z,95980.22
2023-05-11T19:15:29.615Z,95986.28
2023-05-11T19:17:59.215Z,95987.03
2023-05-11T19:20:27.469Z,95985.56
2023-05-11T19:22:55.706Z,95983.06
2023-05-11T19:25:24.059Z,95984.06
2023-05-11T19:27:52.303Z,95982.63
2023-05-11T19:30:21.016Z,95980.00
2023-05-11T19:32:49.418Z,95979.44
2023-05-11T19:35:19.711Z,95978.81
2023-05-11T19:37:48.464Z,95987.97
2023-05-11T19:42:48.045Z,95984.31
2023-05-11T19:45:16.276Z,95980.66
2023-05-11T19:47:44.871Z,95987.03
2023-05-11T19:50:14.693Z,95985.25
2023-05-11T19:52:44.248Z,95979.00
2023-05-11T19:55:12.487Z,95984.91
2023-05-11T19:57:40.646Z,95981.22
2023-05-11T20:00:09.746Z,95980.66
2023-05-11T20:02:38.101Z,95987.16
2023-05-11T20:05:07.830Z,95980.97
2023-05-11T20:07:36.112Z,95982.31
2023-05-11T20:10:06.680Z,95989.44
2023-05-11T20:12:34.757Z,95974.69
2023-05-11T20:15:03.092Z,95975.22
2023-05-11T20:17:31.444Z,95980.25
2023-05-11T20:19:59.758Z,95974.00
2023-05-11T20:22:28.196Z,95977.97
2023-05-11T20:24:56.735Z,95975.66
2023-05-11T20:27:26.609Z,95986.69
2023-05-11T20:29:56.125Z,95977.22
2023-05-11T20:32:24.639Z,95975.47
2023-05-11T20:34:53.046Z,95976.53
2023-05-11T20:37:21.510Z,95972.53
2023-05-11T20:39:49.822Z,95978.00
2023-05-11T20:42:18.063Z,95972.66
2023-05-11T20:44:49.850Z,95976.63
2023-05-11T20:47:18.474Z,95973.34
2023-05-11T20:49:47.722Z,95976.44
2023-05-11T20:52:17.573Z,95969.59
2023-05-11T20:54:48.114Z,95968.91
2023-05-11T20:57:16.266Z,95961.97
2023-05-11T21:02:17.270Z,95968.38
2023-05-11T21:04:45.871Z,95966.41
2023-05-11T21:07:14.093Z,95966.50
2023-05-11T21:09:44.431Z,95963.53
2023-05-11T21:12:12.701Z,95969.94
2023-05-11T21:14:41.452Z,95959.06
2023-05-11T21:17:09.791Z,95961.97
2023-05-11T21:19:39.538Z,95956.31
2023-05-11T21:22:07.851Z,95963.88
2023-05-11T21:24:37.581Z,95961.53
2023-05-11T21:27:06.080Z,95957.13
2023-05-11T21:29:37.067Z,95955.00
2023-05-11T21:34:55.935Z,95956.63
2023-05-11T21:37:24.234Z,95955.72
2023-05-11T21:39:53.042Z,95953.50
2023-05-11T21:42:21.879Z,95953.25
2023-05-11T21:44:50.278Z,95956.59
2023-05-11T21:47:18.626Z,95956.59
2023-05-11T21:49:46.999Z,95959.88
2023-05-11T21:52:16.611Z,95958.84
2023-05-11T21:54:44.876Z,95970.56
2023-05-11T21:57:13.165Z,95972.94
2023-05-11T21:59:41.382Z,95977.19
2023-05-11T22:02:09.658Z,95971.16
2023-05-11T22:04:38.002Z,95966.34
2023-05-11T22:07:06.486Z,95975.53
2023-05-11T22:09:36.268Z,95968.84
2023-05-11T22:12:05.037Z,95971.72
2023-05-11T22:14:33.411Z,95979.03
2023-05-11T22:17:01.778Z,95970.34
2023-05-11T22:19:30.154Z,95963.88
2023-05-11T22:21:58.354Z,95975.97
2023-05-11T22:24:27.235Z,95972.84
2023-05-11T22:26:57.289Z,95982.03
2023-05-11T22:29:25.540Z,95970.38
2023-05-11T22:31:53.837Z,95971.53
2023-05-11T22:34:22.219Z,95974.56
2023-05-11T22:36:50.452Z,95976.72
2023-05-11T22:39:18.868Z,95980.22
2023-05-11T22:41:47.078Z,95987.84
2023-05-11T22:44:17.737Z,95982.06
2023-05-11T22:46:46.024Z,95984.31
2023-05-11T22:49:14.299Z,95987.97
2023-05-11T22:51:42.565Z,95986.31
2023-05-11T22:54:11.011Z,95980.38
2023-05-11T22:56:39.318Z,95989.94
2023-05-11T22:59:07.885Z,95980.63
2023-05-11T23:01:37.519Z,95977.50
2023-05-11T23:04:05.868Z,95982.53
2023-05-11T23:06:34.174Z,95983.63
2023-05-11T23:09:02.844Z,95980.66
2023-05-11T23:11:31.047Z,95972.22
2023-05-11T23:13:59.559Z,95972.63
2023-05-11T23:16:27.912Z,95979.19
2023-05-11T23:18:57.606Z,95972.06
2023-05-11T23:21:26.162Z,95971.00
2023-05-11T23:23:54.551Z,95969.38
2023-05-11T23:26:23.068Z,95963.66
2023-05-11T23:28:51.622Z,95967.75
2023-05-11T23:31:20.017Z,95963.66
2023-05-11T23:33:48.326Z,95969.38
2023-05-11T23:36:17.946Z,95960.66
2023-05-11T23:38:46.430Z,95964.25
2023-05-11T23:41:14.697Z,95966.53
2023-05-11T23:43:42.962Z,95962.38
2023-05-11T23:46:11.574Z,95964.25
2023-05-11T23:48:40.165Z,95956.66
2023-05-11T23:51:08.416Z,95958.03
2023-05-11T23:53:38.125Z,95959.66
2023-05-11T23:56:07.171Z,95953.13
2023-05-11T23:58:35.464Z,95956.94
